createdAt,value
2022-08-04T09:33:17.421Z,4.70
2022-08-04T09:36:27.712Z,4.22
2022-08-04T09:39:10.992Z,9.57
2022-08-04T09:41:49.564Z,9.68
2022-08-04T09:44:52.373Z,7.40
2022-08-04T09:47:40.169Z,3.33
2022-08-04T09:50:15.563Z,3.15
2022-08-04T09:53:07.541Z,10.80
2022-08-04T09:55:53.858Z,6.28
2022-08-04T09:58:33.510Z,5.57
2022-08-04T10:01:06.496Z,4.75
2022-08-04T10:03:38.327Z,7.38
2022-08-04T10:06:16.338Z,3.72
2022-08-04T10:09:04.686Z,4.15
2022-08-04T10:11:54.375Z,8.88
2022-08-04T10:14:32.958Z,4.97
2022-08-04T10:17:25.266Z,5.30
2022-08-04T10:20:45.595Z,10.57
2022-08-04T10:23:27.512Z,4.43
2022-08-04T10:26:13.685Z,4.65
2022-08-04T10:28:50.044Z,4.65
2022-08-04T10:31:24.934Z,5.15
2022-08-04T10:33:58.978Z,4.05
2022-08-04T10:36:41.374Z,3.80
2022-08-04T10:39:43.095Z,4.38
2022-08-04T10:42:17.199Z,5.18
2022-08-04T10:45:10.666Z,5.47
2022-08-04T10:47:53.423Z,4.35
2022-08-04T10:50:24.965Z,4.28
2022-08-04T10:53:05.755Z,5.20
2022-08-04T10:56:06.986Z,4.80
2022-08-04T10:58:57.380Z,5.50
2022-08-04T11:02:00.962Z,7.95
2022-08-04T11:04:30.682Z,5.13
2022-08-04T11:07:00.777Z,5.35
2022-08-04T11:09:30.340Z,5.88
2022-08-04T11:12:07.596Z,5.28
2022-08-04T11:14:50.421Z,4.82
2022-08-04T11:17:35.915Z,7.40
2022-08-04T11:20:36.213Z,4.78
2022-08-04T11:23:11.983Z,5.57
2022-08-04T11:28:14.177Z,4.57
2022-08-04T11:30:50.566Z,6.13
2022-08-04T11:33:26.924Z,6.35
2022-08-04T11:36:27.860Z,7.60
2022-08-04T11:39:01.267Z,6.28
2022-08-04T11:41:38.169Z,4.63
2022-08-04T11:44:12.489Z,6.60
2022-08-04T11:46:48.946Z,6.10
2022-08-04T11:49:28.665Z,6.40
2022-08-04T11:52:00.407Z,6.25
2022-08-04T11:54:28.494Z,5.72
2022-08-04T11:56:56.587Z,5.65
2022-08-04T11:59:25.245Z,9.75
2022-08-04T12:01:58.850Z,8.35
2022-08-04T12:04:42.501Z,7.13
2022-08-04T12:08:00.279Z,5.95
2022-08-04T12:11:13.735Z,9.45
2022-08-04T12:14:13.096Z,9.07
2022-08-04T12:16:56.129Z,6.93
2022-08-04T12:20:03.354Z,10.48
2022-08-04T12:22:40.941Z,6.78
2022-08-04T12:25:14.444Z,8.05
2022-08-04T12:27:52.005Z,7.68
2022-08-04T12:30:59.818Z,6.45
2022-08-04T12:33:17.824Z,6.90
2022-08-04T12:36:16.797Z,10.25
2022-08-04T12:38:59.132Z,6.30
2022-08-04T12:41:37.599Z,6.03
2022-08-04T12:44:11.264Z,6.53
2022-08-04T12:47:36.493Z,8.45
2022-08-04T12:50:00.184Z,7.70
2022-08-04T12:55:22.266Z,11.02
2022-08-04T12:57:52.352Z,9.15
2022-08-04T13:00:29.864Z,10.55
2022-08-04T13:03:10.035Z,6.68
2022-08-04T13:05:40.333Z,7.40
2022-08-04T13:08:09.645Z,8.15
2022-08-04T13:10:42.596Z,7.55
2022-08-04T13:13:29.354Z,8.95
2022-08-04T13:16:08.663Z,7.55
2022-08-04T13:18:49.107Z,7.18
2022-08-04T13:21:22.783Z,6.72
2022-08-04T13:24:20.413Z,8.73
2022-08-04T13:26:57.941Z,8.20
2022-08-04T13:30:00.084Z,9.85
2022-08-04T13:32:26.601Z,6.72
2022-08-04T13:34:56.105Z,7.57
2022-08-04T13:37:30.682Z,7.05
2022-08-04T13:39:59.714Z,6.65
2022-08-04T13:42:27.846Z,7.10
2022-08-04T13:44:59.606Z,8.32
2022-08-04T13:47:34.293Z,7.93
2022-08-04T13:50:30.241Z,8.25
2022-08-04T13:53:01.351Z,6.55
2022-08-04T13:55:36.025Z,6.50
2022-08-04T13:58:14.498Z,8.05
2022-08-04T14:01:11.160Z,6.90
2022-08-04T14:03:55.973Z,8.02
2022-08-04T14:06:36.123Z,7.88
2022-08-04T14:09:16.972Z,9.02
2022-08-04T14:12:10.071Z,7.22
2022-08-04T14:14:46.854Z,7.43
2022-08-04T14:19:50.546Z,9.20
2022-08-04T14:22:27.305Z,9.00
2022-08-04T14:25:15.966Z,6.80
2022-08-04T14:27:47.926Z,8.57
2022-08-04T14:30:27.347Z,11.07
2022-08-04T14:34:04.623Z,8.32
2022-08-04T14:35:59.077Z,10.80
2022-08-04T14:39:01.868Z,7.30
2022-08-04T14:41:32.703Z,9.52
2022-08-04T14:44:03.237Z,7.90
2022-08-04T14:46:36.588Z,7.10
2022-08-04T14:49:13.167Z,9.38
2022-08-04T14:52:01.720Z,7.35
2022-08-04T14:54:34.965Z,8.02
2022-08-04T14:57:07.855Z,8.20
2022-08-04T14:59:59.136Z,8.90
2022-08-04T15:02:32.539Z,8.98
2022-08-04T15:06:00.773Z,8.68
2022-08-04T15:07:49.623Z,9.95
2022-08-04T15:10:26.918Z,13.10
2022-08-04T15:13:03.802Z,10.50
2022-08-04T15:15:36.579Z,8.02
2022-08-04T15:18:08.484Z,9.68
2022-08-04T15:20:40.153Z,12.48
2022-08-04T15:23:10.780Z,9.43
2022-08-04T15:25:46.542Z,10.95
2022-08-04T15:28:18.235Z,9.68
2022-08-04T15:30:48.127Z,10.75
2022-08-04T15:33:33.906Z,13.20
2022-08-04T15:36:13.916Z,11.63
2022-08-04T15:38:53.779Z,12.15
2022-08-04T15:41:55.102Z,10.23
2022-08-04T15:44:41.994Z,11.98
2022-08-04T15:47:12.860Z,15.73
2022-08-04T15:49:41.778Z,9.77
2022-08-04T15:52:16.889Z,10.57
2022-08-04T15:54:52.070Z,10.60
2022-08-04T15:58:08.786Z,12.73
2022-08-04T16:00:49.163Z,9.15
2022-08-04T16:03:57.785Z,8.70
2022-08-04T16:06:22.439Z,10.95
2022-08-04T16:08:57.467Z,11.93
2022-08-04T16:11:31.804Z,11.13
2022-08-04T16:13:59.532Z,8.65
2022-08-04T16:16:31.658Z,14.40
2022-08-04T16:19:09.017Z,10.45
2022-08-04T16:21:51.351Z,11.07
2022-08-04T16:24:21.664Z,9.32
2022-08-04T16:26:54.437Z,8.88
2022-08-04T16:29:23.508Z,8.93
2022-08-04T16:32:25.981Z,12.30
2022-08-04T16:35:05.548Z,11.00
2022-08-04T16:37:34.503Z,13.27
2022-08-04T16:40:41.194Z,12.80
2022-08-04T16:43:22.519Z,12.90
2022-08-04T16:46:04.130Z,15.45
2022-08-04T16:48:35.932Z,18.92
2022-08-04T16:51:09.680Z,11.98
2022-08-04T16:53:52.432Z,11.52
2022-08-04T16:56:29.534Z,15.43
2022-08-04T16:58:57.400Z,10.45
2022-08-04T17:01:33.106Z,12.75
2022-08-04T17:04:10.606Z,11.75
2022-08-04T17:06:42.172Z,9.93
2022-08-04T17:09:12.175Z,12.43
2022-08-04T17:11:40.951Z,11.48
2022-08-04T17:14:08.901Z,14.23
2022-08-04T17:16:43.514Z,13.77
2022-08-04T17:19:24.392Z,14.10
2022-08-04T17:22:06.039Z,11.02
2022-08-04T17:24:38.397Z,12.52
2022-08-04T17:28:08.971Z,12.70
2022-08-04T17:29:54.800Z,12.07
2022-08-04T17:32:23.388Z,12.23
2022-08-04T17:35:00.498Z,10.38
2022-08-04T17:37:38.932Z,14.80
2022-08-04T17:40:11.407Z,19.88
2022-08-04T17:42:41.477Z,14.07
2022-08-04T17:48:09.270Z,14.05
2022-08-04T17:50:43.500Z,15.60
2022-08-04T17:53:14.415Z,14.23
2022-08-04T17:55:49.604Z,13.48
2022-08-04T17:58:21.175Z,14.45
2022-08-04T18:03:51.728Z,16.35
2022-08-04T18:06:25.445Z,14.88
2022-08-04T18:08:57.559Z,13.63
2022-08-04T18:11:29.877Z,12.35
2022-08-04T18:14:10.405Z,16.70
2022-08-04T18:16:45.071Z,17.45
2022-08-04T18:19:15.681Z,19.15
2022-08-04T18:21:59.854Z,15.35
2022-08-04T18:27:19.825Z,15.05
2022-08-04T18:30:33.290Z,21.63
2022-08-04T18:33:16.839Z,21.88
2022-08-04T18:36:33.518Z,26.40
2022-08-04T18:38:22.345Z,21.08
2022-08-04T18:40:54.612Z,17.88
2022-08-04T18:43:28.273Z,18.38
2022-08-04T18:46:00.417Z,20.98
2022-08-04T18:48:36.930Z,23.80
2022-08-04T18:51:22.435Z,19.67
2022-08-04T18:56:40.224Z,25.45
2022-08-04T18:59:27.774Z,23.38
2022-08-04T19:02:13.276Z,25.08
2022-08-04T19:04:43.871Z,28.73
2022-08-04T19:08:02.354Z,20.10
2022-08-04T19:10:05.307Z,24.65
2022-08-04T19:12:34.134Z,18.10
2022-08-04T19:15:10.389Z,21.23
2022-08-04T19:17:53.443Z,16.17
2022-08-04T19:20:26.730Z,13.32
2022-08-04T19:24:26.248Z,14.38
2022-08-04T19:26:02.894Z,20.15
2022-08-04T19:28:34.826Z,24.42
2022-08-04T19:31:07.796Z,16.08
2022-08-04T19:33:58.466Z,20.23
2022-08-04T19:36:27.911Z,21.23
2022-08-04T19:39:01.280Z,16.48
2022-08-04T19:41:33.393Z,25.02
2022-08-04T19:44:21.011Z,19.00
2022-08-04T19:46:51.332Z,13.40
2022-08-04T19:50:03.117Z,16.95
2022-08-04T19:52:08.212Z,15.27
2022-08-04T19:54:35.681Z,17.98
2022-08-04T19:57:09.059Z,18.60
2022-08-04T19:59:48.006Z,19.70
2022-08-04T20:02:16.085Z,17.48
2022-08-04T20:04:43.713Z,19.15
2022-08-04T20:07:14.483Z,18.80
2022-08-04T20:09:53.759Z,18.50
2022-08-04T20:12:21.720Z,17.90
2022-08-04T20:14:49.530Z,16.55
2022-08-04T20:18:06.942Z,23.38
2022-08-04T20:20:12.000Z,18.70
2022-08-04T20:22:51.928Z,19.58
2022-08-04T20:25:36.650Z,20.35
2022-08-04T20:28:05.985Z,15.45
2022-08-04T20:30:33.735Z,17.63
2022-08-04T20:33:01.512Z,24.13
2022-08-04T20:36:00.598Z,20.50
2022-08-04T20:38:33.644Z,24.17
2022-08-04T20:41:02.522Z,17.15
2022-08-04T20:46:29.153Z,22.52
2022-08-04T20:48:58.288Z,25.10
2022-08-04T20:51:32.101Z,24.05
2022-08-04T20:54:02.392Z,23.23
2022-08-04T20:56:30.514Z,20.38
2022-08-04T20:59:07.577Z,30.02
2022-08-04T21:07:11.059Z,25.30
2022-08-04T21:09:50.674Z,26.85
2022-08-04T21:12:27.861Z,26.02
2022-08-04T21:15:01.142Z,24.77
2022-08-04T21:17:56.778Z,25.70
2022-08-04T21:20:28.851Z,37.92
2022-08-04T21:22:59.856Z,30.38
2022-08-04T21:25:30.099Z,26.58
2022-08-04T21:27:58.918Z,24.70
2022-08-04T21:30:36.991Z,27.92
2022-08-04T21:33:20.294Z,25.05
2022-08-04T21:35:54.289Z,25.60
2022-08-04T21:38:27.954Z,31.05
2022-08-04T21:41:13.778Z,31.67
2022-08-04T21:43:52.115Z,28.02
2022-08-04T21:46:20.808Z,29.02
2022-08-04T21:48:48.783Z,20.48
2022-08-04T21:51:57.433Z,24.38
2022-08-04T21:54:07.716Z,33.22
2022-08-04T21:56:36.225Z,30.02
2022-08-04T21:59:11.429Z,30.85
2022-08-04T22:01:52.102Z,22.23
2022-08-04T22:04:22.261Z,26.85
2022-08-04T22:06:52.743Z,21.13
2022-08-04T22:09:21.817Z,22.52
2022-08-04T22:11:51.471Z,23.20
2022-08-04T22:14:29.263Z,22.17
2022-08-04T22:17:02.158Z,24.92
2022-08-04T22:19:50.028Z,26.00
2022-08-04T22:22:25.425Z,25.77
2022-08-04T22:28:03.062Z,20.08
2022-08-04T22:30:37.588Z,19.67
2022-08-04T22:33:08.762Z,19.45
2022-08-04T22:35:44.219Z,16.17
2022-08-04T22:38:32.775Z,18.88
2022-08-04T22:41:12.712Z,19.55
2022-08-04T22:43:41.309Z,19.55
2022-08-04T22:46:12.202Z,14.52
2022-08-04T22:48:43.436Z,16.20
2022-08-04T22:51:13.245Z,19.35
2022-08-04T22:53:42.118Z,15.70
2022-08-04T22:56:38.707Z,24.07
2022-08-04T22:59:10.955Z,18.05
2022-08-04T23:01:58.830Z,21.00
2022-08-04T23:04:30.698Z,17.75
2022-08-04T23:06:58.798Z,17.75
2022-08-04T23:09:49.064Z,16.77
2022-08-04T23:12:24.418Z,20.02
2022-08-04T23:14:55.341Z,21.08
2022-08-04T23:17:24.005Z,19.65
2022-08-04T23:19:57.982Z,17.67
2022-08-04T23:22:41.580Z,15.27
2022-08-04T23:25:16.427Z,18.73
2022-08-04T23:27:50.716Z,21.58
2022-08-04T23:30:29.553Z,15.57
2022-08-04T23:32:58.275Z,17.75
2022-08-04T23:35:25.793Z,16.05
2022-08-04T23:37:57.323Z,15.90
2022-08-04T23:40:49.870Z,16.70
2022-08-04T23:43:18.587Z,15.50
2022-08-04T23:46:04.450Z,15.80
2022-08-04T23:48:36.061Z,17.73
2022-08-04T23:51:15.056Z,18.02
2022-08-04T23:54:01.893Z,15.35
2022-08-04T23:56:33.865Z,15.70
2022-08-04T23:59:03.903Z,13.73
